createdAt,value
2023-01-15T00:00:35.162Z,81.42
2023-01-15T00:03:32.251Z,81.11
2023-01-15T00:06:09.737Z,80.82
2023-01-15T00:08:46.418Z,80.56
2023-01-15T00:11:23.849Z,80.17
2023-01-15T00:14:00.645Z,80.03
2023-01-15T00:16:37.560Z,79.70
2023-01-15T00:19:15.966Z,79.41
2023-01-15T00:21:54.278Z,79.19
2023-01-15T00:24:48.494Z,79.17
2023-01-15T00:27:39.930Z,78.84
2023-01-15T00:30:20.448Z,78.58
2023-01-15T00:32:56.941Z,78.55
2023-01-15T00:35:33.305Z,78.56
2023-01-15T00:38:09.677Z,78.29
2023-01-15T00:40:46.368Z,78.28
2023-01-15T00:43:22.979Z,78.15
2023-01-15T00:46:01.740Z,77.86
2023-01-15T00:48:39.748Z,77.59
2023-01-15T00:51:16.033Z,77.43
2023-01-15T00:53:52.484Z,77.19
2023-01-15T00:56:28.946Z,77.12
2023-01-15T00:59:08.188Z,76.91
2023-01-15T01:01:44.800Z,76.69
2023-01-15T01:04:21.354Z,76.76
2023-01-15T01:06:57.746Z,76.51
2023-01-15T01:09:35.337Z,76.65
2023-01-15T01:12:13.057Z,76.54
2023-01-15T01:14:49.439Z,76.36
2023-01-15T01:17:25.804Z,76.41
2023-01-15T01:20:02.231Z,75.80
2023-01-15T01:22:38.643Z,75.70
2023-01-15T01:25:16.008Z,75.75
2023-01-15T01:27:53.854Z,75.52
2023-01-15T01:30:30.207Z,75.24
2023-01-15T01:33:07.422Z,75.17
2023-01-15T01:35:51.005Z,74.79
2023-01-15T01:38:27.303Z,74.70
2023-01-15T01:41:04.086Z,74.84
2023-01-15T01:44:00.952Z,74.76
2023-01-15T01:46:39.293Z,74.28
2023-01-15T01:49:17.532Z,73.92
2023-01-15T01:52:01.704Z,74.12
2023-01-15T01:54:41.800Z,74.25
2023-01-15T01:57:21.339Z,73.77
2023-01-15T01:59:59.032Z,73.42
2023-01-15T02:02:36.633Z,73.19
2023-01-15T02:05:25.204Z,73.23
2023-01-15T02:08:03.010Z,72.91
2023-01-15T02:10:41.189Z,72.61
2023-01-15T02:13:27.082Z,72.46
2023-01-15T02:16:16.738Z,72.10
2023-01-15T02:19:08.849Z,71.74
2023-01-15T02:21:53.094Z,71.78
2023-01-15T02:24:44.930Z,72.63
2023-01-15T02:27:24.008Z,72.62
2023-01-15T02:30:11.564Z,72.76
2023-01-15T02:33:03.710Z,72.12
2023-01-15T02:35:46.776Z,72.41
2023-01-15T02:38:26.886Z,72.00
2023-01-15T02:41:08.313Z,71.78
2023-01-15T02:43:51.923Z,71.38
2023-01-15T02:46:36.441Z,71.02
2023-01-15T02:49:19.155Z,70.81
2023-01-15T02:52:10.419Z,70.69
2023-01-15T02:55:03.429Z,70.21
2023-01-15T02:57:44.847Z,70.00
2023-01-15T03:00:27.688Z,69.84
2023-01-15T03:03:15.071Z,69.96
2023-01-15T03:06:03.394Z,69.85
2023-01-15T03:08:40.253Z,69.83
2023-01-15T03:11:21.297Z,69.84
2023-01-15T03:14:16.663Z,69.71
2023-01-15T03:16:58.335Z,69.86
2023-01-15T03:19:49.819Z,69.78
2023-01-15T03:22:34.452Z,69.51
2023-01-15T03:25:18.392Z,69.35
2023-01-15T03:28:04.230Z,69.09
2023-01-15T03:30:40.967Z,69.19
2023-01-15T03:33:18.265Z,69.03
2023-01-15T03:35:59.691Z,69.07
2023-01-15T03:39:11.900Z,69.16
2023-01-15T03:42:17.379Z,69.11
2023-01-15T03:45:04.640Z,69.05
2023-01-15T03:48:01.543Z,68.90
2023-01-15T03:50:49.559Z,68.81
2023-01-15T03:53:35.752Z,68.84
2023-01-15T03:56:25.018Z,68.65
2023-01-15T03:59:10.835Z,68.55
2023-01-15T04:02:01.381Z,68.44
2023-01-15T04:04:38.578Z,68.31
2023-01-15T04:07:16.025Z,68.23
2023-01-15T04:09:53.179Z,68.10
2023-01-15T04:12:30.507Z,67.86
2023-01-15T04:15:08.637Z,67.80
2023-01-15T04:17:45.375Z,67.72
2023-01-15T04:20:22.126Z,67.89
2023-01-15T04:22:58.595Z,67.55
2023-01-15T04:25:34.809Z,67.54
2023-01-15T04:28:13.537Z,67.41
2023-01-15T04:30:49.788Z,66.96
2023-01-15T04:33:26.105Z,67.18
2023-01-15T04:36:06.772Z,67.09
2023-01-15T04:38:43.988Z,66.92
2023-01-15T04:41:37.888Z,66.74
2023-01-15T04:44:14.186Z,66.52
2023-01-15T04:46:51.331Z,66.36
2023-01-15T04:49:27.770Z,66.51
2023-01-15T04:52:04.413Z,66.51
2023-01-15T04:54:40.681Z,66.70
2023-01-15T04:57:18.775Z,66.69
2023-01-15T04:59:55.259Z,66.30
2023-01-15T05:02:31.624Z,66.44
2023-01-15T05:05:09.545Z,66.59
2023-01-15T05:07:45.883Z,66.55
2023-01-15T05:10:22.660Z,66.59
2023-01-15T05:12:58.923Z,66.53
2023-01-15T05:15:35.184Z,66.78
2023-01-15T05:18:14.976Z,66.91
2023-01-15T05:20:51.507Z,66.90
2023-01-15T05:23:27.759Z,66.94
2023-01-15T05:26:07.466Z,66.97
2023-01-15T05:28:44.087Z,66.68
2023-01-15T05:31:22.211Z,66.70
2023-01-15T05:33:59.954Z,66.70
2023-01-15T05:36:37.760Z,66.50
2023-01-15T05:39:14.162Z,66.52
2023-01-15T05:41:50.757Z,66.37
2023-01-15T05:44:31.035Z,66.41
2023-01-15T05:47:08.150Z,66.42
2023-01-15T05:49:45.286Z,66.42
2023-01-15T05:52:21.500Z,66.79
2023-01-15T05:54:57.787Z,66.59
2023-01-15T05:57:34.084Z,66.36
2023-01-15T06:00:14.570Z,66.30
2023-01-15T06:02:55.086Z,66.35
2023-01-15T06:05:31.475Z,66.08
2023-01-15T06:08:08.349Z,65.93
2023-01-15T06:10:47.291Z,66.15
2023-01-15T06:13:23.594Z,65.91
2023-01-15T06:16:00.315Z,65.98
2023-01-15T06:18:36.828Z,65.85
2023-01-15T06:21:15.357Z,65.80
2023-01-15T06:23:54.190Z,65.54
2023-01-15T06:26:30.792Z,65.43
2023-01-15T06:29:07.138Z,65.20
2023-01-15T06:31:43.585Z,64.98
2023-01-15T06:34:20.036Z,64.95
2023-01-15T06:36:56.302Z,64.82
2023-01-15T06:39:32.943Z,64.42
2023-01-15T06:42:27.962Z,64.07
2023-01-15T06:45:22.280Z,64.23
2023-01-15T06:47:59.422Z,64.15
2023-01-15T06:50:35.678Z,63.88
2023-01-15T06:53:12.260Z,63.82
2023-01-15T06:55:48.971Z,63.84
2023-01-15T06:58:25.400Z,63.71
2023-01-15T07:01:01.837Z,63.54
2023-01-15T07:03:38.250Z,63.12
2023-01-15T07:06:17.046Z,63.13
2023-01-15T07:08:53.870Z,62.92
2023-01-15T07:11:30.661Z,63.01
2023-01-15T07:14:07.059Z,62.61
2023-01-15T07:16:43.321Z,62.40
2023-01-15T07:19:20.382Z,62.10
2023-01-15T07:21:56.701Z,62.21
2023-01-15T07:24:33.419Z,62.20
2023-01-15T07:27:10.507Z,61.83
2023-01-15T07:29:46.913Z,61.77
2023-01-15T07:32:23.363Z,61.96
2023-01-15T07:34:59.641Z,62.09
2023-01-15T07:37:36.023Z,61.76
2023-01-15T07:40:15.485Z,61.62
2023-01-15T07:43:09.532Z,61.23
2023-01-15T07:46:00.567Z,60.99
2023-01-15T07:48:54.637Z,60.93
2023-01-15T07:51:30.918Z,60.80
2023-01-15T07:54:07.523Z,60.70
2023-01-15T07:56:43.968Z,60.41
2023-01-15T07:59:20.458Z,60.26
2023-01-15T08:01:57.135Z,60.25
2023-01-15T08:04:33.745Z,59.95
2023-01-15T08:07:11.112Z,59.69
2023-01-15T08:09:47.348Z,59.57
2023-01-15T08:12:41.270Z,59.52
2023-01-15T08:15:17.961Z,59.50
2023-01-15T08:17:55.373Z,59.43
2023-01-15T08:20:31.954Z,59.24
2023-01-15T08:23:09.630Z,58.91
2023-01-15T08:25:46.020Z,58.87
2023-01-15T08:28:22.444Z,58.22
2023-01-15T08:30:58.627Z,58.06
2023-01-15T08:33:34.940Z,57.48
2023-01-15T08:36:12.480Z,56.52
2023-01-15T08:38:51.506Z,56.33
2023-01-15T08:41:28.041Z,55.56
2023-01-15T08:44:04.638Z,55.53
2023-01-15T08:46:41.135Z,55.50
2023-01-15T08:49:17.895Z,55.30
2023-01-15T08:51:54.430Z,55.09
2023-01-15T08:54:31.016Z,54.86
2023-01-15T08:57:09.364Z,54.46
2023-01-15T08:59:45.935Z,54.82
2023-01-15T09:02:22.351Z,54.31
2023-01-15T09:04:58.869Z,54.58
2023-01-15T09:07:37.337Z,54.46
2023-01-15T09:10:15.743Z,54.36
2023-01-15T09:12:52.759Z,54.22
2023-01-15T09:15:29.696Z,53.61
2023-01-15T09:18:06.127Z,54.56
2023-01-15T09:20:42.597Z,54.20
2023-01-15T09:23:19.195Z,54.34
2023-01-15T09:26:05.304Z,54.07
2023-01-15T09:28:41.533Z,53.72
2023-01-15T09:31:17.780Z,53.43
2023-01-15T09:33:54.292Z,53.31
2023-01-15T09:36:35.182Z,53.34
2023-01-15T09:39:11.945Z,52.86
2023-01-15T09:42:16.724Z,53.13
2023-01-15T09:45:18.871Z,53.02
2023-01-15T09:48:25.728Z,53.30
2023-01-15T09:51:23.920Z,53.80
2023-01-15T09:54:24.895Z,53.59
2023-01-15T09:57:02.137Z,53.62
2023-01-15T09:59:44.501Z,53.37
2023-01-15T10:02:30.438Z,53.32
2023-01-15T10:05:18.819Z,53.29
2023-01-15T10:08:07.739Z,52.62
2023-01-15T10:10:51.421Z,53.03
2023-01-15T10:13:42.858Z,53.07
2023-01-15T10:16:27.004Z,53.06
2023-01-15T10:19:05.745Z,52.78
2023-01-15T10:21:52.386Z,52.69
2023-01-15T10:24:39.324Z,52.69
2023-01-15T10:27:23.788Z,52.48
2023-01-15T10:30:13.441Z,52.56
2023-01-15T10:33:02.296Z,52.37
2023-01-15T10:35:58.689Z,52.33
2023-01-15T10:38:44.768Z,52.34
2023-01-15T10:42:06.502Z,52.21
2023-01-15T10:44:55.685Z,52.46
2023-01-15T10:47:39.111Z,52.27
2023-01-15T10:50:26.257Z,52.19
2023-01-15T10:53:18.817Z,51.95
2023-01-15T10:56:00.395Z,51.74
2023-01-15T10:58:48.376Z,51.38
2023-01-15T11:01:29.927Z,51.02
2023-01-15T11:04:06.924Z,51.31
2023-01-15T11:06:43.657Z,50.85
2023-01-15T11:09:32.475Z,51.10
2023-01-15T11:12:44.624Z,51.10
2023-01-15T11:15:45.542Z,50.71
2023-01-15T11:18:48.381Z,51.18
2023-01-15T11:21:27.763Z,51.30
2023-01-15T11:24:04.911Z,51.28
2023-01-15T11:26:42.717Z,51.26
2023-01-15T11:29:35.143Z,50.85
2023-01-15T11:32:31.274Z,50.56
2023-01-15T11:35:20.255Z,50.77
2023-01-15T11:38:07.651Z,51.11
2023-01-15T11:40:55.380Z,50.91
2023-01-15T11:43:51.581Z,50.95
2023-01-15T11:46:58.057Z,51.30
2023-01-15T11:49:51.897Z,51.29
2023-01-15T11:52:29.934Z,51.15
2023-01-15T11:55:11.737Z,51.33
2023-01-15T11:57:50.543Z,51.36
2023-01-15T12:00:34.046Z,51.60
2023-01-15T12:03:22.152Z,51.65
2023-01-15T12:06:08.998Z,51.77
2023-01-15T12:08:58.385Z,52.14
2023-01-15T12:12:01.001Z,52.76
2023-01-15T12:15:13.978Z,53.27
2023-01-15T12:18:43.371Z,54.12
2023-01-15T12:21:45.963Z,54.90
2023-01-15T12:25:17.569Z,55.99
2023-01-15T12:28:11.578Z,56.54
2023-01-15T12:31:01.342Z,57.17
2023-01-15T12:33:53.846Z,57.98
2023-01-15T12:36:38.781Z,58.55
2023-01-15T12:39:26.956Z,58.98
2023-01-15T12:42:42.394Z,59.30
2023-01-15T12:45:24.478Z,59.78
2023-01-15T12:48:13.560Z,60.17
2023-01-15T12:50:53.383Z,60.66
2023-01-15T12:53:42.677Z,61.11
2023-01-15T12:56:29.250Z,61.86
2023-01-15T12:59:20.054Z,62.11
2023-01-15T13:02:12.991Z,62.71
2023-01-15T13:04:57.343Z,63.27
2023-01-15T13:07:43.421Z,63.37
2023-01-15T13:10:25.229Z,63.48
2023-01-15T13:13:20.795Z,63.56
2023-01-15T13:16:20.563Z,63.99
2023-01-15T13:19:22.991Z,63.99
2023-01-15T13:22:03.349Z,64.08
2023-01-15T13:25:17.940Z,64.03
2023-01-15T13:28:22.880Z,64.19
2023-01-15T13:31:23.840Z,64.36
2023-01-15T13:34:08.913Z,64.55
2023-01-15T13:36:49.515Z,64.73
2023-01-15T13:39:33.306Z,64.82
2023-01-15T13:42:34.463Z,64.84
2023-01-15T13:45:36.907Z,64.99
2023-01-15T13:48:20.120Z,65.17
2023-01-15T13:51:01.789Z,65.51
2023-01-15T13:53:46.439Z,65.51
2023-01-15T13:56:36.254Z,65.74
2023-01-15T13:59:44.063Z,65.75
2023-01-15T14:02:34.648Z,65.60
2023-01-15T14:05:33.280Z,65.67
2023-01-15T14:08:29.419Z,65.72
2023-01-15T14:11:06.321Z,65.78
2023-01-15T14:14:31.040Z,65.71
2023-01-15T14:17:41.158Z,65.76
2023-01-15T14:20:59.302Z,65.79
2023-01-15T14:24:01.072Z,65.84
2023-01-15T14:26:52.816Z,65.84
2023-01-15T14:30:14.938Z,65.81
2023-01-15T14:33:11.588Z,65.80
2023-01-15T14:35:52.246Z,65.86
2023-01-15T14:38:33.295Z,65.86
2023-01-15T14:41:13.739Z,65.77
2023-01-15T14:43:55.899Z,65.80
2023-01-15T14:46:38.823Z,65.85
2023-01-15T14:49:50.162Z,65.77
2023-01-15T14:52:29.389Z,65.64
2023-01-15T14:55:11.489Z,65.71
2023-01-15T14:57:58.439Z,65.67
2023-01-15T15:00:43.912Z,65.76
2023-01-15T15:03:32.100Z,65.83
2023-01-15T15:06:13.442Z,65.87
2023-01-15T15:08:51.680Z,65.98
2023-01-15T15:11:58.454Z,66.01
2023-01-15T15:14:40.022Z,66.17
2023-01-15T15:17:32.517Z,66.30
2023-01-15T15:20:31.565Z,66.39
2023-01-15T15:23:29.409Z,66.49
2023-01-15T15:26:22.140Z,66.58
2023-01-15T15:29:08.411Z,66.67
2023-01-15T15:31:53.772Z,66.79
2023-01-15T15:34:34.571Z,66.89
2023-01-15T15:37:21.640Z,66.97
2023-01-15T15:40:03.890Z,67.00
2023-01-15T15:43:04.807Z,67.06
2023-01-15T15:45:59.104Z,67.16
2023-01-15T15:48:45.889Z,67.15
2023-01-15T15:51:40.033Z,67.15
2023-01-15T15:54:23.784Z,67.17
2023-01-15T15:57:09.781Z,67.33
2023-01-15T15:59:53.219Z,67.40
2023-01-15T16:02:40.679Z,67.46
2023-01-15T16:05:31.780Z,67.52
2023-01-15T16:08:24.185Z,67.65
2023-01-15T16:11:05.585Z,67.71
2023-01-15T16:13:47.199Z,67.70
2023-01-15T16:16:26.501Z,67.73
2023-01-15T16:19:05.265Z,67.77
2023-01-15T16:21:45.354Z,67.84
2023-01-15T16:24:34.384Z,67.95
2023-01-15T16:27:19.813Z,67.97
2023-01-15T16:29:57.974Z,67.98
2023-01-15T16:32:37.085Z,68.04
2023-01-15T16:35:24.616Z,68.05
2023-01-15T16:38:04.509Z,68.09
2023-01-15T16:40:49.484Z,68.19
2023-01-15T16:43:29.010Z,68.28
2023-01-15T16:46:17.594Z,68.49
2023-01-15T16:49:27.772Z,68.59
2023-01-15T16:52:45.328Z,68.75
2023-01-15T16:55:47.130Z,68.90
2023-01-15T16:58:42.168Z,69.28
2023-01-15T17:01:43.215Z,69.56
2023-01-15T17:04:31.532Z,69.84
2023-01-15T17:07:18.057Z,70.18
2023-01-15T17:09:58.980Z,70.50
2023-01-15T17:12:39.952Z,70.99
2023-01-15T17:15:44.768Z,71.41
2023-01-15T17:18:34.447Z,71.64
2023-01-15T17:21:18.696Z,72.13
2023-01-15T17:23:55.797Z,72.68
2023-01-15T17:26:32.698Z,73.15
2023-01-15T17:29:10.182Z,73.67
2023-01-15T17:31:47.247Z,74.14
2023-01-15T17:34:25.745Z,74.44
2023-01-15T17:37:02.349Z,74.73
2023-01-15T17:39:39.278Z,75.14
2023-01-15T17:42:22.562Z,75.40
2023-01-15T17:44:59.118Z,75.52
2023-01-15T17:47:35.685Z,75.35
2023-01-15T17:50:14.880Z,75.25
2023-01-15T17:52:51.820Z,75.33
2023-01-15T17:55:42.931Z,76.29
2023-01-15T17:58:43.424Z,76.36
2023-01-15T18:01:46.155Z,76.52
2023-01-15T18:04:46.396Z,76.49
2023-01-15T18:07:27.552Z,76.65
2023-01-15T18:10:06.205Z,77.03
2023-01-15T18:12:42.755Z,76.94
2023-01-15T18:15:20.405Z,77.30
2023-01-15T18:17:57.273Z,77.88
2023-01-15T18:20:33.959Z,78.22
2023-01-15T18:23:10.599Z,78.30
2023-01-15T18:25:47.828Z,78.56
2023-01-15T18:28:25.332Z,79.31
2023-01-15T18:31:05.482Z,78.89
2023-01-15T18:33:42.174Z,78.95
2023-01-15T18:36:19.713Z,79.27
2023-01-15T18:39:02.588Z,79.44
2023-01-15T18:41:58.606Z,79.75
2023-01-15T18:44:53.071Z,80.15
2023-01-15T18:47:31.387Z,79.69
2023-01-15T18:50:09.238Z,80.01
2023-01-15T18:52:52.054Z,80.45
2023-01-15T18:55:29.946Z,80.34
2023-01-15T18:58:06.526Z,80.47
2023-01-15T19:00:43.409Z,80.62
2023-01-15T19:03:19.963Z,81.05
2023-01-15T19:05:56.542Z,81.14
2023-01-15T19:08:33.266Z,81.22
2023-01-15T19:11:16.599Z,81.30
2023-01-15T19:14:07.694Z,81.43
2023-01-15T19:17:02.811Z,81.39
2023-01-15T19:19:42.337Z,81.64
2023-01-15T19:22:36.403Z,81.57
2023-01-15T19:25:14.646Z,81.89
2023-01-15T19:27:51.274Z,82.04
2023-01-15T19:30:29.479Z,81.76
2023-01-15T19:33:07.429Z,81.98
2023-01-15T19:35:47.317Z,82.14
2023-01-15T19:38:24.642Z,82.19
2023-01-15T19:41:22.069Z,82.37
2023-01-15T19:44:16.961Z,82.56
2023-01-15T19:47:12.051Z,82.30
2023-01-15T19:50:07.346Z,82.26
2023-01-15T19:52:47.787Z,82.61
2023-01-15T19:55:26.453Z,82.62
2023-01-15T19:58:07.520Z,82.95
2023-01-15T20:00:48.457Z,83.03
2023-01-15T20:03:25.974Z,83.38
2023-01-15T20:06:03.606Z,83.29
2023-01-15T20:08:42.889Z,83.24
2023-01-15T20:11:21.037Z,83.24
2023-01-15T20:13:59.224Z,83.43
2023-01-15T20:16:39.819Z,83.64
2023-01-15T20:19:19.079Z,83.66
2023-01-15T20:21:58.992Z,83.60
2023-01-15T20:24:42.289Z,83.48
2023-01-15T20:27:22.697Z,83.66
2023-01-15T20:30:02.985Z,83.87
2023-01-15T20:32:45.240Z,83.75
2023-01-15T20:35:29.356Z,83.92
2023-01-15T20:38:08.870Z,84.07
2023-01-15T20:40:49.197Z,83.97
2023-01-15T20:43:46.157Z,84.28
2023-01-15T20:46:25.346Z,84.46
2023-01-15T20:49:21.092Z,84.61
2023-01-15T20:52:01.488Z,84.75
2023-01-15T20:54:39.972Z,84.94
2023-01-15T20:57:17.987Z,84.81
2023-01-15T20:59:56.644Z,85.07
2023-01-15T21:02:33.969Z,85.12
2023-01-15T21:05:13.459Z,85.37
2023-01-15T21:07:50.746Z,85.57
2023-01-15T21:10:28.854Z,85.67
2023-01-15T21:13:05.575Z,85.83
2023-01-15T21:15:44.057Z,85.91
2023-01-15T21:18:21.071Z,86.08
2023-01-15T21:20:58.210Z,86.17
2023-01-15T21:23:34.610Z,86.26
2023-01-15T21:26:11.693Z,86.27
2023-01-15T21:28:48.020Z,86.29
2023-01-15T21:31:24.819Z,86.43
2023-01-15T21:34:01.367Z,86.57
2023-01-15T21:36:38.105Z,86.73
2023-01-15T21:39:18.297Z,86.87
2023-01-15T21:42:12.125Z,86.96
2023-01-15T21:44:48.579Z,87.04
2023-01-15T21:47:26.477Z,87.13
2023-01-15T21:50:03.153Z,87.16
2023-01-15T21:52:39.503Z,87.25
2023-01-15T21:55:16.286Z,87.35
2023-01-15T21:57:52.662Z,87.44
2023-01-15T22:00:29.535Z,87.56
2023-01-15T22:03:05.900Z,87.64
2023-01-15T22:05:42.373Z,87.72
2023-01-15T22:08:18.751Z,87.82
2023-01-15T22:10:54.957Z,87.88
2023-01-15T22:13:32.852Z,87.98
2023-01-15T22:16:10.690Z,88.04
2023-01-15T22:18:47.524Z,88.10
2023-01-15T22:21:23.844Z,88.15
2023-01-15T22:24:00.519Z,88.23
2023-01-15T22:26:38.112Z,88.32
2023-01-15T22:29:15.593Z,88.29
2023-01-15T22:31:52.691Z,88.28
2023-01-15T22:34:30.473Z,88.28
2023-01-15T22:37:07.264Z,88.29
2023-01-15T22:39:43.753Z,88.24
2023-01-15T22:42:28.048Z,88.19
2023-01-15T22:45:05.113Z,88.19
2023-01-15T22:47:41.415Z,88.14
2023-01-15T22:50:19.516Z,88.19
2023-01-15T22:52:56.526Z,88.24
2023-01-15T22:55:32.880Z,88.26
2023-01-15T22:58:09.342Z,88.29
2023-01-15T23:00:45.806Z,88.33
2023-01-15T23:03:22.489Z,88.36
2023-01-15T23:06:03.685Z,88.40
2023-01-15T23:08:40.712Z,88.44
2023-01-15T23:11:19.155Z,88.46
2023-01-15T23:13:56.029Z,88.48
2023-01-15T23:16:32.706Z,88.51
2023-01-15T23:19:09.849Z,88.53
2023-01-15T23:21:47.092Z,88.55
2023-01-15T23:24:23.567Z,88.54
2023-01-15T23:26:59.908Z,88.58
2023-01-15T23:29:36.635Z,88.61
2023-01-15T23:32:13.255Z,88.62
2023-01-15T23:34:49.628Z,88.64
2023-01-15T23:37:26.187Z,88.65
2023-01-15T23:40:02.663Z,88.69
2023-01-15T23:42:56.943Z,88.72
2023-01-15T23:45:53.590Z,88.76
2023-01-15T23:48:29.964Z,88.77
2023-01-15T23:51:06.810Z,88.79
2023-01-15T23:53:43.414Z,88.81
2023-01-15T23:56:19.921Z,88.83
2023-01-15T23:58:56.314Z,88.86
